Terminal Aerodrome Forecast
Issued by NWS Twin Cities, MN

Home | Current Version | Previous Version | Text Only | Print | Product List | Glossary On
Versions: 1 2 3 4 5 6 7 8 9 10 11 12 13 14 15 16 17 18
000
FTUS43 KMPX 271700
TAFEAU
TAF
KEAU 271720Z 2718/2818 17009KT P6SM SCT060 SCT250
     FM280000 16004KT P6SM SCT050
     FM280900 VRB03KT 3SM BR FEW040
     FM281400 19005KT P6SM FEW050 SCT250=

USA.gov is the U.S. government's official web portal to all federal, state and local government web resources and services.